Wetterdaten: Woche 08.05.17 - 14.05.17 (KW19)
Datum Zeit Temp. A. Feuchte I. Feuchte A. Luftdruck Regen Wind Richtung Sonnenschein UV Solar Taupunkt Windchill Windben
08.05.2017 00:00 10,4 C 57 % 94 % 1012,3 hPa 0,0 l/m 0,0 km/h (0 Bft) N 0,00 h 0,0 UV-I 0 W/m 9,5 C 10,4 C 0,0 km/h (0 Bft)
08.05.2017 01:00 9,7 C 57 % 95 % 1012,1 hPa 0,0 l/m 0,0 km/h (0 Bft) N 0,00 h 0,0 UV-I 0 W/m 8,9 C 9,7 C 0,0 km/h (0 Bft)
08.05.2017 02:00 9,1 C 57 % 96 % 1011,9 hPa 0,0 l/m 0,0 km/h (0 Bft) N 0,00 h 0,0 UV-I 0 W/m 8,5 C 9,1 C 0,0 km/h (0 Bft)
08.05.2017 03:00 8,6 C 57 % 96 % 1011,7 hPa 0,0 l/m 0,0 km/h (0 Bft) N 0,00 h 0,0 UV-I 0 W/m 8,0 C 8,6 C 0,0 km/h (0 Bft)
08.05.2017 04:00 8,8 C 58 % 96 % 1011,6 hPa 0,0 l/m 0,0 km/h (0 Bft) N 0,00 h 0,0 UV-I 0 W/m 8,3 C 8,8 C 0,0 km/h (0 Bft)
08.05.2017 05:00 9,0 C 58 % 97 % 1011,7 hPa 0,0 l/m 0,0 km/h (0 Bft) N 0,00 h 0,0 UV-I 0 W/m 8,5 C 9,0 C 0,0 km/h (0 Bft)
08.05.2017 06:00 9,1 C 58 % 97 % 1011,7 hPa 0,0 l/m 0,0 km/h (0 Bft) N 0,00 h 0,0 UV-I 31 W/m 8,7 C 9,1 C 0,0 km/h (0 Bft)
08.05.2017 07:00 9,7 C 58 % 97 % 1012,1 hPa 0,0 l/m 0,1 km/h (0 Bft) N-NW 0,00 h 0,0 UV-I 44 W/m 9,3 C 9,7 C 0,3 km/h (0 Bft)
08.05.2017 08:00 10,6 C 58 % 95 % 1012,2 hPa 0,0 l/m 0,7 km/h (0 Bft) NW 0,12 h 0,7 UV-I 94 W/m 9,9 C 10,6 C 1,6 km/h (1 Bft)
08.05.2017 09:00 11,6 C 54 % 89 % 1012,3 hPa 0,0 l/m 2,1 km/h (1 Bft) NW 0,12 h 0,8 UV-I 103 W/m 9,9 C 11,6 C 5,2 km/h (1 Bft)
08.05.2017 10:00 12,3 C 53 % 85 % 1012,5 hPa 0,0 l/m 3,5 km/h (1 Bft) N 0,72 h 1,5 UV-I 210 W/m 9,9 C 12,2 C 8,1 km/h (2 Bft)
08.05.2017 11:00 12,9 C 54 % 81 % 1012,6 hPa 0,0 l/m 3,9 km/h (1 Bft) N 0,92 h 2,2 UV-I 292 W/m 9,7 C 12,7 C 8,0 km/h (2 Bft)
08.05.2017 12:00 13,3 C 55 % 78 % 1012,6 hPa 0,0 l/m 4,0 km/h (1 Bft) N-NW 0,65 h 1,7 UV-I 207 W/m 9,5 C 13,2 C 8,7 km/h (2 Bft)
08.05.2017 13:00 13,8 C 55 % 75 % 1012,6 hPa 0,0 l/m 4,7 km/h (1 Bft) N 0,92 h 3,0 UV-I 421 W/m 9,4 C 13,3 C 9,2 km/h (2 Bft)
08.05.2017 14:00 15,0 C 55 % 66 % 1012,5 hPa 0,0 l/m 8,0 km/h (2 Bft) N 1,00 h 3,4 UV-I 441 W/m 8,6 C 13,9 C 15,1 km/h (3 Bft)
08.05.2017 15:00 15,2 C 55 % 63 % 1012,5 hPa 0,0 l/m 10,5 km/h (2 Bft) N 1,00 h 3,0 UV-I 485 W/m 8,1 C 13,0 C 17,7 km/h (3 Bft)
08.05.2017 16:00 14,4 C 55 % 66 % 1012,6 hPa 0,0 l/m 11,2 km/h (2 Bft) N 1,00 h 2,1 UV-I 370 W/m 8,1 C 11,9 C 18,4 km/h (3 Bft)
08.05.2017 17:00 12,5 C 55 % 71 % 1013,0 hPa 0,0 l/m 11,7 km/h (2 Bft) N 0,25 h 0,9 UV-I 136 W/m 7,4 C 9,6 C 18,4 km/h (3 Bft)
08.05.2017 18:00 10,5 C 54 % 75 % 1013,8 hPa 0,0 l/m 12,5 km/h (3 Bft) N-NW 0,00 h 0,5 UV-I 71 W/m 6,3 C 7,0 C 20,3 km/h (4 Bft)
08.05.2017 19:00 9,0 C 54 % 78 % 1014,4 hPa 0,0 l/m 10,9 km/h (2 Bft) N-NW 0,00 h 0,0 UV-I 19 W/m 5,4 C 6,1 C 17,2 km/h (3 Bft)
08.05.2017 20:00 8,0 C 55 % 81 % 1015,2 hPa 0,0 l/m 5,7 km/h (1 Bft) N-NW 0,00 h 0,0 UV-I 5 W/m 5,0 C 7,0 C 9,8 km/h (2 Bft)
08.05.2017 21:00 7,8 C 55 % 83 % 1015,8 hPa 0,0 l/m 1,1 km/h (1 Bft) N-NW 0,00 h 0,0 UV-I 0 W/m 5,1 C 7,8 C 2,5 km/h (1 Bft)
08.05.2017 22:00 7,6 C 56 % 86 % 1016,1 hPa 0,0 l/m 4,1 km/h (1 Bft) NW 0,00 h 0,0 UV-I 0 W/m 5,4 C 7,0 C 8,3 km/h (2 Bft)
08.05.2017 23:00 6,5 C 57 % 90 % 1016,5 hPa 0,0 l/m 10,1 km/h (2 Bft) N-NW 0,00 h 0,0 UV-I 0 W/m 5,0 C 3,7 C 15,5 km/h (3 Bft)
09.05.2017 00:00 5,8 C 57 % 90 % 1016,9 hPa 0,0 l/m 9,0 km/h (2 Bft) N-NW 0,00 h 0,0 UV-I 0 W/m 4,2 C 3,3 C 14,3 km/h (3 Bft)
09.05.2017 01:00 5,2 C 57 % 89 % 1016,8 hPa 0,0 l/m 6,0 km/h (2 Bft) N-NW 0,00 h 0,0 UV-I 0 W/m 3,6 C 4,2 C 10,6 km/h (2 Bft)
09.05.2017 02:00 4,4 C 57 % 90 % 1016,7 hPa 0,0 l/m 6,2 km/h (2 Bft) N-NW 0,00 h 0,0 UV-I 0 W/m 3,0 C 3,3 C 10,0 km/h (2 Bft)
09.05.2017 03:00 4,5 C 57 % 89 % 1016,9 hPa 0,0 l/m 2,0 km/h (1 Bft) N 0,00 h 0,0 UV-I 0 W/m 2,7 C 4,3 C 3,9 km/h (1 Bft)
09.05.2017 04:00 4,2 C 57 % 88 % 1017,0 hPa 0,0 l/m 0,3 km/h (0 Bft) N-NO 0,00 h 0,0 UV-I 0 W/m 2,4 C 4,2 C 0,7 km/h (0 Bft)
09.05.2017 05:00 4,0 C 57 % 88 % 1017,1 hPa 0,0 l/m 0,9 km/h (0 Bft) N 0,00 h 0,0 UV-I 5 W/m 2,1 C 3,9 C 1,8 km/h (1 Bft)
09.05.2017 06:00 4,1 C 57 % 88 % 1017,4 hPa 0,0 l/m 2,6 km/h (1 Bft) N 0,00 h 0,0 UV-I 24 W/m 2,3 C 3,7 C 5,5 km/h (1 Bft)
09.05.2017 07:00 4,4 C 58 % 86 % 1017,5 hPa 0,0 l/m 6,4 km/h (2 Bft) N 0,00 h 0,5 UV-I 68 W/m 2,2 C 3,2 C 10,5 km/h (2 Bft)
09.05.2017 08:00 5,2 C 57 % 79 % 1017,7 hPa 0,0 l/m 4,2 km/h (1 Bft) N 0,58 h 0,9 UV-I 160 W/m 1,9 C 4,7 C 7,3 km/h (2 Bft)
09.05.2017 09:00 5,6 C 56 % 74 % 1017,8 hPa 0,0 l/m 4,0 km/h (1 Bft) N-NO 0,77 h 1,1 UV-I 167 W/m 1,3 C 5,0 C 8,2 km/h (2 Bft)
09.05.2017 10:00 6,1 C 56 % 70 % 1017,8 hPa 0,0 l/m 6,3 km/h (2 Bft) N 1,00 h 1,8 UV-I 254 W/m 1,0 C 5,1 C 10,6 km/h (2 Bft)
09.05.2017 11:00 6,7 C 56 % 67 % 1017,9 hPa 0,0 l/m 5,8 km/h (2 Bft) N 1,00 h 2,4 UV-I 291 W/m 1,0 C 5,4 C 9,7 km/h (2 Bft)
09.05.2017 12:00 6,8 C 56 % 62 % 1017,7 hPa 0,0 l/m 6,2 km/h (2 Bft) N 0,53 h 2,1 UV-I 270 W/m -0,0 C 5,7 C 10,7 km/h (2 Bft)
09.05.2017 13:00 7,1 C 56 % 60 % 1017,6 hPa 0,0 l/m 4,2 km/h (1 Bft) N-NW 1,00 h 2,2 UV-I 253 W/m -0,2 C 6,8 C 7,9 km/h (2 Bft)
09.05.2017 14:00 7,1 C 55 % 57 % 1017,5 hPa 0,0 l/m 4,8 km/h (1 Bft) N-NW 1,00 h 1,8 UV-I 213 W/m -0,9 C 6,6 C 9,0 km/h (2 Bft)
09.05.2017 15:00 7,6 C 55 % 56 % 1017,1 hPa 0,0 l/m 4,3 km/h (1 Bft) N-NW 1,00 h 2,1 UV-I 278 W/m -0,7 C 7,0 C 8,1 km/h (2 Bft)
09.05.2017 16:00 7,7 C 54 % 54 % 1016,8 hPa 0,0 l/m 6,1 km/h (2 Bft) N-NO 1,00 h 1,6 UV-I 241 W/m -1,0 C 6,6 C 9,4 km/h (2 Bft)
09.05.2017 17:00 7,6 C 54 % 55 % 1016,7 hPa 0,0 l/m 2,8 km/h (1 Bft) N-NO 1,00 h 1,2 UV-I 206 W/m -0,9 C 7,4 C 5,7 km/h (1 Bft)
09.05.2017 18:00 7,0 C 55 % 57 % 1016,5 hPa 0,0 l/m 3,0 km/h (1 Bft) N-NO 0,12 h 0,7 UV-I 116 W/m -1,0 C 6,6 C 5,6 km/h (1 Bft)
09.05.2017 19:00 6,3 C 55 % 58 % 1016,3 hPa 0,0 l/m 0,0 km/h (0 Bft) N 0,00 h 0,5 UV-I 57 W/m -1,2 C 6,3 C 0,0 km/h (0 Bft)
09.05.2017 20:00 5,4 C 55 % 62 % 1016,2 hPa 0,0 l/m 0,0 km/h (0 Bft) N 0,00 h 0,0 UV-I 13 W/m -1,3 C 5,4 C 0,0 km/h (0 Bft)
09.05.2017 21:00 3,3 C 55 % 75 % 1016,2 hPa 0,0 l/m 0,0 km/h (0 Bft) N 0,00 h 0,0 UV-I 0 W/m -0,7 C 3,3 C 0,0 km/h (0 Bft)
09.05.2017 22:00 1,7 C 55 % 84 % 1016,2 hPa 0,0 l/m 0,0 km/h (0 Bft) N 0,00 h 0,0 UV-I 0 W/m -0,8 C 1,7 C 0,0 km/h (0 Bft)
09.05.2017 23:00 0,6 C 56 % 88 % 1016,1 hPa 0,0 l/m 0,0 km/h (0 Bft) N 0,00 h 0,0 UV-I 0 W/m -1,2 C 0,6 C 0,0 km/h (0 Bft)
10.05.2017 00:00 -0,2 C 56 % 89 % 1015,8 hPa 0,0 l/m 0,0 km/h (0 Bft) N 0,00 h 0,0 UV-I 0 W/m -1,8 C -0,2 C 0,0 km/h (0 Bft)
10.05.2017 01:00 -0,9 C 56 % 91 % 1015,4 hPa 0,0 l/m 0,0 km/h (0 Bft) N 0,00 h 0,0 UV-I 0 W/m -2,2 C -0,9 C 0,0 km/h (0 Bft)
10.05.2017 02:00 -1,2 C 56 % 92 % 1014,8 hPa 0,0 l/m 0,0 km/h (0 Bft) N 0,00 h 0,0 UV-I 0 W/m -2,4 C -1,2 C 0,0 km/h (0 Bft)
10.05.2017 03:00 -1,6 C 56 % 92 % 1014,5 hPa 0,0 l/m 0,0 km/h (0 Bft) N 0,00 h 0,0 UV-I 0 W/m -2,7 C -1,6 C 0,0 km/h (0 Bft)
10.05.2017 04:00 -1,8 C 56 % 93 % 1014,0 hPa 0,0 l/m 0,0 km/h (0 Bft) N 0,00 h 0,0 UV-I 0 W/m -2,8 C -1,8 C 0,0 km/h (0 Bft)
10.05.2017 05:00 -2,1 C 56 % 93 % 1013,6 hPa 0,0 l/m 0,0 km/h (0 Bft) N 0,00 h 0,0 UV-I 8 W/m -3,1 C -2,1 C 0,0 km/h (0 Bft)
10.05.2017 06:00 -1,7 C 56 % 93 % 1013,4 hPa 0,0 l/m 0,0 km/h (0 Bft) N 0,00 h 0,0 UV-I 23 W/m -2,7 C -1,7 C 0,0 km/h (0 Bft)
10.05.2017 07:00 0,7 C 57 % 90 % 1013,4 hPa 0,0 l/m 0,0 km/h (0 Bft) N 0,78 h 0,7 UV-I 212 W/m -0,8 C 0,7 C 0,0 km/h (0 Bft)
10.05.2017 08:00 4,7 C 55 % 79 % 1013,1 hPa 0,0 l/m 0,0 km/h (0 Bft) S-SO 1,00 h 1,3 UV-I 380 W/m 1,3 C 4,7 C 0,2 km/h (0 Bft)
10.05.2017 09:00 8,0 C 55 % 63 % 1012,9 hPa 0,0 l/m 1,5 km/h (1 Bft) S 1,00 h 2,4 UV-I 539 W/m 1,4 C 8,0 C 4,1 km/h (1 Bft)
10.05.2017 10:00 9,8 C 52 % 53 % 1012,6 hPa 0,0 l/m 1,9 km/h (1 Bft) S 1,00 h 3,6 UV-I 655 W/m 0,8 C 9,8 C 4,5 km/h (1 Bft)
10.05.2017 11:00 10,5 C 46 % 51 % 1012,0 hPa 0,0 l/m 1,7 km/h (1 Bft) SO 1,00 h 4,3 UV-I 673 W/m 0,9 C 10,4 C 4,0 km/h (1 Bft)
10.05.2017 12:00 12,2 C 44 % 49 % 1011,5 hPa 0,0 l/m 0,8 km/h (0 Bft) W 1,00 h 5,5 UV-I 793 W/m 1,8 C 12,2 C 2,9 km/h (1 Bft)
10.05.2017 13:00 13,5 C 46 % 47 % 1010,9 hPa 0,0 l/m 2,8 km/h (1 Bft) S 1,00 h 5,9 UV-I 846 W/m 2,4 C 13,4 C 6,5 km/h (2 Bft)
10.05.2017 14:00 13,9 C 47 % 45 % 1010,3 hPa 0,0 l/m 4,9 km/h (1 Bft) S 1,00 h 5,3 UV-I 779 W/m 2,2 C 13,6 C 9,3 km/h (2 Bft)
10.05.2017 15:00 14,6 C 48 % 43 % 1009,5 hPa 0,0 l/m 3,6 km/h (1 Bft) S-SO 1,00 h 4,3 UV-I 721 W/m 2,2 C 14,5 C 7,6 km/h (2 Bft)
10.05.2017 16:00 14,7 C 48 % 45 % 1008,8 hPa 0,0 l/m 5,4 km/h (1 Bft) S 0,97 h 2,9 UV-I 574 W/m 2,9 C 14,2 C 10,7 km/h (2 Bft)
10.05.2017 17:00 15,1 C 47 % 43 % 1008,2 hPa 0,0 l/m 2,8 km/h (1 Bft) W-SW 1,00 h 1,8 UV-I 429 W/m 2,5 C 15,0 C 6,8 km/h (2 Bft)
10.05.2017 18:00 14,6 C 44 % 44 % 1007,7 hPa 0,0 l/m 3,1 km/h (1 Bft) W-SW 0,00 h 0,0 UV-I 42 W/m 2,5 C 14,6 C 7,4 km/h (2 Bft)
10.05.2017 19:00 13,9 C 47 % 47 % 1007,2 hPa 0,0 l/m 1,3 km/h (1 Bft) S 0,00 h 0,0 UV-I 26 W/m 2,9 C 13,9 C 3,4 km/h (1 Bft)
10.05.2017 20:00 12,6 C 48 % 54 % 1006,9 hPa 0,0 l/m 0,0 km/h (0 Bft) N 0,00 h 0,0 UV-I 11 W/m 3,4 C 12,6 C 0,0 km/h (0 Bft)
10.05.2017 21:00 10,3 C 49 % 64 % 1007,0 hPa 0,0 l/m 0,0 km/h (0 Bft) N 0,00 h 0,0 UV-I 0 W/m 3,8 C 10,3 C 0,0 km/h (0 Bft)
10.05.2017 22:00 8,2 C 49 % 74 % 1007,2 hPa 0,0 l/m 0,0 km/h (0 Bft) N 0,00 h 0,0 UV-I 0 W/m 3,9 C 8,2 C 0,0 km/h (0 Bft)
10.05.2017 23:00 5,9 C 51 % 84 % 1007,2 hPa 0,0 l/m 0,0 km/h (0 Bft) N 0,00 h 0,0 UV-I 0 W/m 3,4 C 5,9 C 0,0 km/h (0 Bft)
11.05.2017 00:00 4,8 C 51 % 88 % 1007,0 hPa 0,0 l/m 0,0 km/h (0 Bft) N 0,00 h 0,0 UV-I 0 W/m 2,9 C 4,8 C 0,0 km/h (0 Bft)
11.05.2017 01:00 3,6 C 51 % 90 % 1006,9 hPa 0,0 l/m 0,0 km/h (0 Bft) N 0,00 h 0,0 UV-I 0 W/m 2,1 C 3,6 C 0,0 km/h (0 Bft)
11.05.2017 02:00 2,8 C 51 % 91 % 1006,7 hPa 0,0 l/m 0,0 km/h (0 Bft) N 0,00 h 0,0 UV-I 0 W/m 1,5 C 2,8 C 0,0 km/h (0 Bft)
11.05.2017 03:00 2,1 C 52 % 93 % 1006,6 hPa 0,0 l/m 0,0 km/h (0 Bft) N 0,00 h 0,0 UV-I 0 W/m 1,0 C 2,1 C 0,0 km/h (0 Bft)
11.05.2017 04:00 1,5 C 52 % 93 % 1006,3 hPa 0,0 l/m 0,0 km/h (0 Bft) N 0,00 h 0,0 UV-I 0 W/m 0,5 C 1,5 C 0,0 km/h (0 Bft)
11.05.2017 05:00 1,1 C 52 % 93 % 1006,2 hPa 0,0 l/m 0,0 km/h (0 Bft) N 0,00 h 0,0 UV-I 8 W/m 0,1 C 1,1 C 0,0 km/h (0 Bft)
11.05.2017 06:00 1,2 C 52 % 94 % 1006,3 hPa 0,0 l/m 0,0 km/h (0 Bft) N 0,00 h 0,0 UV-I 18 W/m 0,4 C 1,2 C 0,0 km/h (0 Bft)
11.05.2017 07:00 4,3 C 53 % 90 % 1006,1 hPa 0,0 l/m 0,0 km/h (0 Bft) N 0,78 h 0,7 UV-I 217 W/m 2,8 C 4,3 C 0,0 km/h (0 Bft)
11.05.2017 08:00 9,2 C 54 % 78 % 1005,8 hPa 0,0 l/m 0,0 km/h (0 Bft) N 1,00 h 1,4 UV-I 438 W/m 5,6 C 9,2 C 0,0 km/h (0 Bft)
11.05.2017 09:00 14,2 C 54 % 62 % 1005,4 hPa 0,0 l/m 0,0 km/h (0 Bft) N 1,00 h 2,6 UV-I 603 W/m 6,9 C 14,2 C 0,2 km/h (0 Bft)
11.05.2017 10:00 17,1 C 50 % 49 % 1004,8 hPa 0,0 l/m 1,6 km/h (1 Bft) S-SO 1,00 h 3,9 UV-I 718 W/m 6,3 C 17,1 C 3,8 km/h (1 Bft)
11.05.2017 11:00 18,5 C 45 % 45 % 1004,4 hPa 0,0 l/m 4,3 km/h (1 Bft) SO 0,98 h 4,7 UV-I 762 W/m 6,5 C 18,3 C 8,6 km/h (2 Bft)
11.05.2017 12:00 19,5 C 45 % 44 % 1003,9 hPa 0,0 l/m 5,2 km/h (1 Bft) SO 1,02 h 5,1 UV-I 758 W/m 6,9 C 19,1 C 10,3 km/h (2 Bft)
11.05.2017 13:00 20,2 C 46 % 43 % 1003,1 hPa 0,0 l/m 3,5 km/h (1 Bft) SO 1,00 h 4,7 UV-I 661 W/m 7,1 C 20,1 C 8,4 km/h (2 Bft)
11.05.2017 14:00 21,0 C 46 % 42 % 1002,6 hPa 0,0 l/m 4,0 km/h (1 Bft) SO 1,00 h 4,1 UV-I 545 W/m 7,7 C 20,7 C 8,3 km/h (2 Bft)
11.05.2017 15:00 21,5 C 47 % 39 % 1002,0 hPa 0,0 l/m 3,8 km/h (1 Bft) SO 0,88 h 3,5 UV-I 542 W/m 7,0 C 21,3 C 8,9 km/h (2 Bft)
11.05.2017 16:00 20,8 C 47 % 39 % 1001,2 hPa 0,0 l/m 3,4 km/h (1 Bft) O-SO 0,63 h 2,1 UV-I 282 W/m 6,4 C 20,7 C 8,1 km/h (2 Bft)
11.05.2017 17:00 20,4 C 47 % 38 % 1000,7 hPa 0,0 l/m 3,0 km/h (1 Bft) O-SO 1,00 h 1,4 UV-I 262 W/m 5,6 C 20,4 C 8,7 km/h (2 Bft)
11.05.2017 18:00 19,7 C 47 % 40 % 1000,2 hPa 0,0 l/m 2,3 km/h (1 Bft) O-SO 0,15 h 0,7 UV-I 128 W/m 5,7 C 19,7 C 7,5 km/h (2 Bft)
11.05.2017 19:00 19,0 C 48 % 44 % 999,8 hPa 0,0 l/m 1,2 km/h (1 Bft) O-SO 0,00 h 0,5 UV-I 57 W/m 6,5 C 19,0 C 5,0 km/h (1 Bft)
11.05.2017 20:00 17,2 C 48 % 50 % 999,9 hPa 0,0 l/m 0,3 km/h (0 Bft) O-NO 0,00 h 0,0 UV-I 18 W/m 6,6 C 17,2 C 1,4 km/h (1 Bft)
11.05.2017 21:00 15,8 C 49 % 55 % 1000,1 hPa 0,0 l/m 0,1 km/h (0 Bft) NO 0,00 h 0,0 UV-I 0 W/m 6,8 C 15,8 C 0,9 km/h (0 Bft)
11.05.2017 22:00 15,4 C 50 % 56 % 1000,1 hPa 0,0 l/m 0,2 km/h (0 Bft) O 0,00 h 0,0 UV-I 0 W/m 6,6 C 15,4 C 1,4 km/h (1 Bft)
11.05.2017 23:00 14,9 C 51 % 57 % 1000,0 hPa 0,0 l/m 0,2 km/h (0 Bft) O 0,00 h 0,0 UV-I 0 W/m 6,4 C 14,9 C 1,3 km/h (1 Bft)
12.05.2017 00:00 14,2 C 51 % 60 % 1000,2 hPa 0,0 l/m 0,9 km/h (0 Bft) O-NO 0,00 h 0,0 UV-I 0 W/m 6,5 C 14,2 C 2,9 km/h (1 Bft)
12.05.2017 01:00 13,9 C 51 % 64 % 1000,1 hPa 0,0 l/m 0,1 km/h (0 Bft) O-NO 0,00 h 0,0 UV-I 0 W/m 7,2 C 13,9 C 0,9 km/h (0 Bft)
12.05.2017 02:00 12,2 C 51 % 82 % 1000,0 hPa 0,0 l/m 0,2 km/h (0 Bft) O-NO 0,00 h 0,0 UV-I 0 W/m 9,1 C 12,2 C 1,0 km/h (0 Bft)
12.05.2017 03:00 11,6 C 51 % 88 % 999,5 hPa 0,0 l/m 0,0 km/h (0 Bft) O-NO 0,00 h 0,0 UV-I 0 W/m 9,7 C 11,6 C 0,2 km/h (0 Bft)
12.05.2017 04:00 11,4 C 52 % 89 % 999,7 hPa 0,0 l/m 0,0 km/h (0 Bft) N 0,00 h 0,0 UV-I 0 W/m 9,7 C 11,4 C 0,0 km/h (0 Bft)
12.05.2017 05:00 11,2 C 52 % 91 % 1000,1 hPa 0,0 l/m 0,0 km/h (0 Bft) N 0,00 h 0,0 UV-I 7 W/m 9,8 C 11,2 C 0,0 km/h (0 Bft)
12.05.2017 06:00 11,2 C 52 % 91 % 1000,8 hPa 0,2 l/m 0,3 km/h (0 Bft) W 0,00 h 0,0 UV-I 20 W/m 9,8 C 11,2 C 0,7 km/h (0 Bft)
12.05.2017 07:00 11,1 C 54 % 91 % 1001,5 hPa 0,0 l/m 0,0 km/h (0 Bft) S-SO 0,00 h 0,5 UV-I 58 W/m 9,7 C 11,1 C 0,2 km/h (0 Bft)
12.05.2017 08:00 11,8 C 54 % 92 % 1001,8 hPa 0,2 l/m 0,6 km/h (0 Bft) S-SO 0,00 h 0,5 UV-I 53 W/m 10,6 C 11,8 C 2,2 km/h (1 Bft)
12.05.2017 09:00 12,3 C 54 % 93 % 1002,2 hPa 0,2 l/m 1,3 km/h (1 Bft) S 0,27 h 1,0 UV-I 132 W/m 11,2 C 12,3 C 4,5 km/h (1 Bft)
12.05.2017 10:00 13,3 C 54 % 90 % 1002,6 hPa 0,0 l/m 2,6 km/h (1 Bft) S 1,02 h 1,5 UV-I 211 W/m 11,8 C 13,3 C 6,0 km/h (2 Bft)
12.05.2017 11:00 14,1 C 55 % 88 % 1002,9 hPa 0,0 l/m 3,2 km/h (1 Bft) S 1,00 h 1,8 UV-I 221 W/m 12,0 C 14,0 C 6,7 km/h (2 Bft)
12.05.2017 12:00 14,7 C 55 % 85 % 1003,3 hPa 0,0 l/m 4,4 km/h (1 Bft) S 0,93 h 2,3 UV-I 274 W/m 12,3 C 14,5 C 9,2 km/h (2 Bft)
12.05.2017 13:00 16,1 C 55 % 78 % 1003,4 hPa 0,0 l/m 4,4 km/h (1 Bft) S 1,00 h 3,6 UV-I 446 W/m 12,3 C 15,9 C 9,3 km/h (2 Bft)
12.05.2017 14:00 16,8 C 54 % 74 % 1003,4 hPa 0,0 l/m 5,8 km/h (2 Bft) S 1,00 h 3,4 UV-I 421 W/m 12,1 C 16,4 C 10,7 km/h (2 Bft)
12.05.2017 15:00 15,7 C 54 % 80 % 1003,3 hPa 0,2 l/m 3,4 km/h (1 Bft) W-SW 0,57 h 1,7 UV-I 240 W/m 12,3 C 15,6 C 7,4 km/h (2 Bft)
12.05.2017 16:00 16,8 C 55 % 74 % 1003,2 hPa 0,0 l/m 4,7 km/h (1 Bft) W-SW 1,00 h 2,4 UV-I 406 W/m 12,1 C 16,5 C 9,7 km/h (2 Bft)
12.05.2017 17:00 17,6 C 55 % 68 % 1003,3 hPa 0,2 l/m 3,8 km/h (1 Bft) W-SW 1,00 h 1,6 UV-I 332 W/m 11,5 C 17,4 C 9,2 km/h (2 Bft)
12.05.2017 18:00 17,0 C 55 % 70 % 1003,4 hPa 0,0 l/m 2,5 km/h (1 Bft) W-SW 0,05 h 0,7 UV-I 103 W/m 11,5 C 16,9 C 6,1 km/h (2 Bft)
12.05.2017 19:00 16,5 C 55 % 71 % 1003,7 hPa 0,0 l/m 1,0 km/h (0 Bft) W 0,00 h 0,5 UV-I 58 W/m 11,2 C 16,5 C 2,6 km/h (1 Bft)
12.05.2017 20:00 15,3 C 55 % 77 % 1004,1 hPa 0,0 l/m 0,0 km/h (0 Bft) N 0,00 h 0,0 UV-I 16 W/m 11,3 C 15,3 C 0,0 km/h (0 Bft)
12.05.2017 21:00 13,3 C 55 % 85 % 1005,0 hPa 0,0 l/m 0,0 km/h (0 Bft) N 0,00 h 0,0 UV-I 0 W/m 10,8 C 13,3 C 0,0 km/h (0 Bft)
12.05.2017 22:00 11,6 C 55 % 91 % 1005,7 hPa 0,0 l/m 0,0 km/h (0 Bft) N 0,00 h 0,0 UV-I 0 W/m 10,1 C 11,6 C 0,0 km/h (0 Bft)
12.05.2017 23:00 10,3 C 56 % 93 % 1006,1 hPa 0,0 l/m 0,0 km/h (0 Bft) N 0,00 h 0,0 UV-I 0 W/m 9,2 C 10,3 C 0,0 km/h (0 Bft)
13.05.2017 00:00 9,2 C 56 % 94 % 1006,5 hPa 0,0 l/m 0,0 km/h (0 Bft) N 0,00 h 0,0 UV-I 0 W/m 8,3 C 9,2 C 0,0 km/h (0 Bft)
13.05.2017 01:00 8,5 C 56 % 95 % 1006,9 hPa 0,0 l/m 0,0 km/h (0 Bft) N 0,00 h 0,0 UV-I 0 W/m 7,7 C 8,5 C 0,0 km/h (0 Bft)
13.05.2017 02:00 7,8 C 56 % 95 % 1007,1 hPa 0,0 l/m 0,0 km/h (0 Bft) N 0,00 h 0,0 UV-I 0 W/m 7,0 C 7,8 C 0,0 km/h (0 Bft)
13.05.2017 03:00 7,3 C 56 % 95 % 1007,3 hPa 0,0 l/m 0,0 km/h (0 Bft) N 0,00 h 0,0 UV-I 0 W/m 6,6 C 7,3 C 0,0 km/h (0 Bft)
13.05.2017 04:00 7,3 C 56 % 96 % 1007,7 hPa 0,0 l/m 0,0 km/h (0 Bft) N 0,00 h 0,0 UV-I 0 W/m 6,6 C 7,3 C 0,0 km/h (0 Bft)
13.05.2017 05:00 6,6 C 56 % 96 % 1008,0 hPa 0,0 l/m 0,0 km/h (0 Bft) N 0,00 h 0,0 UV-I 9 W/m 6,0 C 6,6 C 0,0 km/h (0 Bft)
13.05.2017 06:00 6,6 C 56 % 96 % 1008,8 hPa 0,0 l/m 0,0 km/h (0 Bft) N 0,00 h 0,0 UV-I 21 W/m 6,1 C 6,6 C 0,0 km/h (0 Bft)
13.05.2017 07:00 9,4 C 56 % 95 % 1009,3 hPa 0,0 l/m 0,0 km/h (0 Bft) N 0,38 h 0,7 UV-I 139 W/m 8,7 C 9,4 C 0,0 km/h (0 Bft)
13.05.2017 08:00 12,2 C 57 % 92 % 1010,0 hPa 0,0 l/m 0,1 km/h (0 Bft) S 0,40 h 1,1 UV-I 228 W/m 10,9 C 12,2 C 0,3 km/h (0 Bft)
13.05.2017 09:00 15,8 C 57 % 80 % 1010,4 hPa 0,0 l/m 1,3 km/h (1 Bft) S 1,00 h 2,6 UV-I 586 W/m 12,4 C 15,8 C 4,4 km/h (1 Bft)
13.05.2017 10:00 18,3 C 54 % 72 % 1010,7 hPa 0,0 l/m 4,4 km/h (1 Bft) S 1,00 h 4,0 UV-I 730 W/m 13,2 C 18,0 C 9,7 km/h (2 Bft)
13.05.2017 11:00 19,1 C 52 % 67 % 1010,8 hPa 0,0 l/m 6,3 km/h (2 Bft) S 1,00 h 3,9 UV-I 587 W/m 12,7 C 18,5 C 13,2 km/h (3 Bft)
13.05.2017 12:00 19,6 C 51 % 62 % 1010,8 hPa 0,0 l/m 7,0 km/h (2 Bft) W-SW 1,00 h 5,1 UV-I 616 W/m 12,2 C 19,0 C 14,5 km/h (3 Bft)
13.05.2017 13:00 20,7 C 50 % 58 % 1011,0 hPa 0,0 l/m 6,6 km/h (2 Bft) S 1,00 h 5,9 UV-I 923 W/m 12,1 C 20,2 C 13,7 km/h (3 Bft)
13.05.2017 14:00 20,7 C 50 % 55 % 1011,1 hPa 0,0 l/m 6,9 km/h (2 Bft) W-SW 0,75 h 3,3 UV-I 503 W/m 11,4 C 20,2 C 14,2 km/h (3 Bft)
13.05.2017 15:00 17,1 C 48 % 66 % 1012,2 hPa 0,0 l/m 2,2 km/h (1 Bft) W-NW 0,00 h 0,9 UV-I 93 W/m 10,6 C 16,9 C 5,4 km/h (1 Bft)
13.05.2017 16:00 17,1 C 49 % 71 % 1012,9 hPa 0,0 l/m 1,4 km/h (1 Bft) W 0,63 h 1,7 UV-I 249 W/m 11,7 C 17,1 C 4,0 km/h (1 Bft)
13.05.2017 17:00 17,9 C 50 % 69 % 1012,6 hPa 0,0 l/m 1,2 km/h (1 Bft) W-NW 0,97 h 1,3 UV-I 221 W/m 12,1 C 17,9 C 3,3 km/h (1 Bft)
13.05.2017 18:00 18,4 C 50 % 65 % 1012,8 hPa 0,0 l/m 0,9 km/h (0 Bft) NW 0,00 h 0,8 UV-I 118 W/m 11,7 C 18,4 C 2,3 km/h (1 Bft)
13.05.2017 19:00 17,9 C 52 % 66 % 1012,9 hPa 0,0 l/m 0,1 km/h (0 Bft) N 0,00 h 0,5 UV-I 57 W/m 11,4 C 17,9 C 0,4 km/h (0 Bft)
13.05.2017 20:00 16,8 C 52 % 72 % 1013,6 hPa 0,0 l/m 0,0 km/h (0 Bft) N 0,00 h 0,0 UV-I 15 W/m 11,8 C 16,8 C 0,0 km/h (0 Bft)
13.05.2017 21:00 14,5 C 53 % 83 % 1014,4 hPa 0,0 l/m 0,0 km/h (0 Bft) N 0,00 h 0,0 UV-I 0 W/m 11,7 C 14,5 C 0,0 km/h (0 Bft)
13.05.2017 22:00 12,5 C 53 % 90 % 1015,0 hPa 0,0 l/m 0,0 km/h (0 Bft) N 0,00 h 0,0 UV-I 0 W/m 10,9 C 12,5 C 0,0 km/h (0 Bft)
13.05.2017 23:00 11,3 C 53 % 93 % 1015,3 hPa 0,0 l/m 0,0 km/h (0 Bft) N 0,00 h 0,0 UV-I 0 W/m 10,1 C 11,3 C 0,0 km/h (0 Bft)
14.05.2017 00:00 10,1 C 53 % 94 % 1015,8 hPa 0,0 l/m 0,0 km/h (0 Bft) N 0,00 h 0,0 UV-I 0 W/m 9,2 C 10,1 C 0,0 km/h (0 Bft)
14.05.2017 01:00 9,9 C 54 % 95 % 1016,1 hPa 0,0 l/m 0,0 km/h (0 Bft) N 0,00 h 0,0 UV-I 0 W/m 9,1 C 9,9 C 0,0 km/h (0 Bft)
14.05.2017 02:00 9,8 C 54 % 94 % 1016,4 hPa 0,0 l/m 0,0 km/h (0 Bft) N 0,00 h 0,0 UV-I 0 W/m 8,9 C 9,8 C 0,0 km/h (0 Bft)
14.05.2017 03:00 9,1 C 54 % 95 % 1016,7 hPa 0,0 l/m 0,0 km/h (0 Bft) N 0,00 h 0,0 UV-I 0 W/m 8,3 C 9,1 C 0,0 km/h (0 Bft)
14.05.2017 04:00 8,8 C 54 % 95 % 1017,2 hPa 0,0 l/m 0,0 km/h (0 Bft) N 0,00 h 0,0 UV-I 0 W/m 8,1 C 8,8 C 0,0 km/h (0 Bft)
14.05.2017 05:00 8,7 C 54 % 96 % 1017,6 hPa 0,0 l/m 0,0 km/h (0 Bft) N 0,00 h 0,0 UV-I 16 W/m 8,1 C 8,7 C 0,0 km/h (0 Bft)
14.05.2017 06:00 9,0 C 55 % 96 % 1018,1 hPa 0,0 l/m 0,0 km/h (0 Bft) N 0,00 h 0,0 UV-I 44 W/m 8,4 C 9,0 C 0,0 km/h (0 Bft)
14.05.2017 07:00 11,5 C 55 % 94 % 1018,6 hPa 0,0 l/m 0,0 km/h (0 Bft) N 0,05 h 0,6 UV-I 104 W/m 10,5 C 11,5 C 0,0 km/h (0 Bft)
14.05.2017 08:00 14,5 C 56 % 87 % 1019,1 hPa 0,0 l/m 2,4 km/h (1 Bft) S 1,00 h 1,4 UV-I 397 W/m 12,3 C 14,5 C 5,7 km/h (1 Bft)
14.05.2017 09:00 15,9 C 56 % 81 % 1019,7 hPa 0,0 l/m 2,6 km/h (1 Bft) SW 1,00 h 2,2 UV-I 487 W/m 12,6 C 15,9 C 6,1 km/h (2 Bft)
14.05.2017 10:00 16,9 C 55 % 78 % 1020,1 hPa 0,0 l/m 1,4 km/h (1 Bft) S 1,00 h 3,8 UV-I 587 W/m 13,1 C 16,9 C 4,3 km/h (1 Bft)
14.05.2017 11:00 18,1 C 54 % 71 % 1020,1 hPa 0,0 l/m 3,1 km/h (1 Bft) W-SW 0,83 h 3,2 UV-I 465 W/m 12,8 C 18,0 C 7,2 km/h (2 Bft)
14.05.2017 12:00 18,6 C 54 % 66 % 1020,3 hPa 0,0 l/m 4,8 km/h (1 Bft) W-SW 1,00 h 4,0 UV-I 502 W/m 12,0 C 18,3 C 9,6 km/h (2 Bft)
14.05.2017 13:00 18,6 C 54 % 63 % 1020,4 hPa 0,0 l/m 6,2 km/h (2 Bft) W-SW 1,00 h 3,4 UV-I 388 W/m 11,5 C 18,1 C 12,0 km/h (2 Bft)
14.05.2017 14:00 18,8 C 53 % 68 % 1020,6 hPa 0,0 l/m 7,6 km/h (2 Bft) N 1,00 h 5,3 UV-I 713 W/m 12,7 C 17,9 C 14,1 km/h (3 Bft)
14.05.2017 15:00 18,0 C 53 % 67 % 1020,5 hPa 0,0 l/m 0,7 km/h (0 Bft) N-NW 0,45 h 1,5 UV-I 157 W/m 11,7 C 18,0 C 2,1 km/h (1 Bft)
14.05.2017 16:00 16,7 C 53 % 75 % 1020,9 hPa 1,2 l/m 3,9 km/h (1 Bft) W-SW 0,40 h 1,3 UV-I 156 W/m 12,2 C 16,3 C 7,5 km/h (2 Bft)
14.05.2017 17:00 14,6 C 53 % 88 % 1021,7 hPa 0,0 l/m 0,7 km/h (0 Bft) N 0,40 h 1,1 UV-I 164 W/m 12,7 C 14,6 C 1,8 km/h (1 Bft)
14.05.2017 18:00 14,1 C 53 % 90 % 1021,7 hPa 0,0 l/m 0,0 km/h (0 Bft) N 0,10 h 0,6 UV-I 87 W/m 12,4 C 14,1 C 0,0 km/h (0 Bft)
14.05.2017 19:00 14,4 C 54 % 88 % 1021,9 hPa 0,0 l/m 0,0 km/h (0 Bft) N 0,00 h 0,5 UV-I 51 W/m 12,3 C 14,4 C 0,0 km/h (0 Bft)
14.05.2017 20:00 13,7 C 54 % 92 % 1022,7 hPa 0,0 l/m 0,0 km/h (0 Bft) N 0,00 h 0,0 UV-I 10 W/m 12,4 C 13,7 C 0,0 km/h (0 Bft)
14.05.2017 21:00 13,0 C 55 % 94 % 1023,8 hPa 0,0 l/m 0,0 km/h (0 Bft) N 0,00 h 0,0 UV-I 0 W/m 12,1 C 13,0 C 0,0 km/h (0 Bft)
14.05.2017 22:00 12,8 C 55 % 95 % 1023,9 hPa 0,0 l/m 0,0 km/h (0 Bft) N 0,00 h 0,0 UV-I 0 W/m 12,0 C 12,8 C 0,0 km/h (0 Bft)
14.05.2017 23:00 12,3 C 55 % 95 % 1023,8 hPa 0,0 l/m 0,0 km/h (0 Bft) N 0,00 h 0,0 UV-I 0 W/m 11,5 C 12,3 C 0,0 km/h (0 Bft)
Min-Datum _ 10.05.17 10.05.17 11.05.17 12.05.17 - 08.05.17 - - - - 10.05.17 10.05.17 08.05.17
_ Min-Zeit 05:25 17:46 15:26 03:13 - 00:00 - - - - 05:20 05:25 00:00
Minimum _ -2,2 C 42 % 35 % 999,4 hPa - 0,0 km/h (0 Bft) - - - - -3,2 C -2,2 C 0,0 km/h (0 Bft)
Max-Datum _ 11.05.17 08.05.17 08.05.17 14.05.17 14.05.17 08.05.17 - 11.05.17 14.05.17 14.05.17 14.05.17 11.05.17 13.05.17
_ Max-Zeit 15:05 07:43 04:38 21:55 16:43 16:33 - 08:56 13:22 13:23 14:05 15:07 14:58
Maximum _ 22,0 C 59 % 97 % 1024,2 hPa 1,2 l/m 20,9 km/h
N (4 Bft)
- 0,12 h 7,5 UV-I 1153 W/m 14,5 C 22,0 C 33,8 km/h
W-SW (5 Bft)
Durchschnitt _ 11,0 C 53 % 77 % 1011,1 hPa #2,2 l/m 2,2 km/h (1 Bft) N #61:05 h 2,2 UV-I 277 W/m 6,6 C 10,8 C 4,3 km/h (1 Bft)